createdAt,value
2018-06-29T00:00:58.755Z,19.47
2018-06-29T00:01:58.753Z,19.39
2018-06-29T00:02:58.794Z,19.48
2018-06-29T00:03:58.772Z,19.51
2018-06-29T00:04:58.816Z,19.46
2018-06-29T00:05:58.811Z,19.50
2018-06-29T00:06:58.819Z,19.40
2018-06-29T00:07:58.804Z,19.54
2018-06-29T00:08:58.809Z,19.46
2018-06-29T00:09:58.811Z,19.41
2018-06-29T00:10:58.834Z,19.39
2018-06-29T00:11:58.824Z,19.40
2018-06-29T00:12:58.861Z,19.37
2018-06-29T00:13:58.799Z,19.32
2018-06-29T00:14:58.838Z,19.36
2018-06-29T00:15:58.837Z,19.28
2018-06-29T00:16:58.889Z,19.32
2018-06-29T00:17:58.855Z,19.21
2018-06-29T00:18:58.801Z,19.21
2018-06-29T00:19:58.805Z,19.28
2018-06-29T00:20:58.861Z,19.26
2018-06-29T00:21:58.793Z,19.28
2018-06-29T00:22:58.809Z,19.26
2018-06-29T00:23:58.812Z,19.22
2018-06-29T00:24:58.830Z,19.18
2018-06-29T00:25:58.815Z,19.21
2018-06-29T00:26:58.931Z,19.19
2018-06-29T00:27:58.848Z,19.18
2018-06-29T00:28:58.827Z,19.10
2018-06-29T00:29:58.834Z,19.08
2018-06-29T00:30:58.826Z,19.07
2018-06-29T00:31:58.847Z,19.07
2018-06-29T00:32:58.858Z,19.08
2018-06-29T00:33:58.859Z,19.16
2018-06-29T00:34:58.874Z,19.08
2018-06-29T00:35:58.886Z,19.07
2018-06-29T00:36:58.852Z,18.91
2018-06-29T00:37:58.836Z,18.94
2018-06-29T00:38:58.849Z,18.90
2018-06-29T00:39:58.858Z,18.85
2018-06-29T00:40:58.900Z,18.98
2018-06-29T00:41:58.868Z,18.94
2018-06-29T00:42:58.885Z,18.91
2018-06-29T00:43:58.891Z,18.87
2018-06-29T00:44:58.869Z,18.85
2018-06-29T00:45:58.895Z,18.90
2018-06-29T00:46:58.964Z,18.84
2018-06-29T00:47:58.891Z,18.87
2018-06-29T00:48:58.914Z,18.85
2018-06-29T00:49:58.905Z,18.91
2018-06-29T00:50:58.894Z,18.88
2018-06-29T00:51:58.891Z,18.85
2018-06-29T00:52:58.924Z,18.85
2018-06-29T00:53:58.926Z,18.84
2018-06-29T00:54:58.929Z,18.80
2018-06-29T00:55:58.939Z,18.70
2018-06-29T00:56:58.933Z,18.69
2018-06-29T00:57:58.917Z,18.72
2018-06-29T00:58:58.910Z,18.63
2018-06-29T00:59:58.906Z,18.66
2018-06-29T01:00:59.076Z,18.65
2018-06-29T01:01:58.946Z,18.62
2018-06-29T01:02:58.941Z,18.66
2018-06-29T01:03:58.977Z,18.54
2018-06-29T01:04:59.054Z,18.57
2018-06-29T01:05:58.965Z,18.65
2018-06-29T01:06:58.996Z,18.52
2018-06-29T01:07:58.969Z,18.52
2018-06-29T01:08:58.952Z,18.54
2018-06-29T01:09:58.981Z,18.47
2018-06-29T01:10:58.959Z,18.52
2018-06-29T01:11:58.954Z,18.50
2018-06-29T01:12:59.005Z,18.55
2018-06-29T01:13:58.978Z,18.42
2018-06-29T01:14:59.003Z,18.45
2018-06-29T01:15:58.988Z,18.50
2018-06-29T01:16:58.981Z,18.44
2018-06-29T01:17:58.988Z,18.48
2018-06-29T01:18:59.786Z,18.47
2018-06-29T01:19:58.977Z,18.42
2018-06-29T01:20:58.997Z,18.39
2018-06-29T01:21:58.987Z,18.35
2018-06-29T01:22:58.976Z,18.37
2018-06-29T01:23:58.976Z,18.42
2018-06-29T01:24:59.043Z,18.33
2018-06-29T01:25:58.997Z,18.36
2018-06-29T01:26:59.030Z,18.30
2018-06-29T01:27:59.017Z,18.32
2018-06-29T01:28:58.990Z,18.35
2018-06-29T01:29:58.998Z,18.30
2018-06-29T01:30:59.001Z,18.29
2018-06-29T01:31:59.009Z,18.29
2018-06-29T01:32:59.018Z,18.36
2018-06-29T01:33:59.007Z,18.26
2018-06-29T01:34:59.065Z,18.27
2018-06-29T01:35:59.102Z,18.23
2018-06-29T01:36:59.029Z,18.17
2018-06-29T01:37:59.022Z,18.21
2018-06-29T01:38:59.023Z,18.25
2018-06-29T01:39:59.051Z,18.21
2018-06-29T01:40:59.111Z,18.14
2018-06-29T01:41:59.067Z,18.25
2018-06-29T01:42:59.035Z,18.18
2018-06-29T01:43:59.073Z,18.10
2018-06-29T01:44:59.052Z,18.11
2018-06-29T01:45:59.053Z,18.07
2018-06-29T01:46:59.073Z,18.11
2018-06-29T01:47:59.054Z,18.02
2018-06-29T01:48:59.083Z,17.99
2018-06-29T01:49:59.095Z,17.99
2018-06-29T01:52:51.194Z,17.96
2018-06-29T01:53:34.169Z,17.99
2018-06-29T01:54:31.353Z,17.97
2018-06-29T01:55:31.342Z,17.90
2018-06-29T01:56:31.317Z,17.93
2018-06-29T01:57:31.327Z,18.00
2018-06-29T01:58:31.342Z,17.93
2018-06-29T01:59:31.336Z,17.82
2018-06-29T02:00:31.336Z,17.89
2018-06-29T02:01:31.360Z,17.77
2018-06-29T02:02:31.362Z,17.74
2018-06-29T02:03:31.363Z,17.82
2018-06-29T02:04:31.353Z,17.74
2018-06-29T02:05:31.359Z,17.87
2018-06-29T02:06:31.338Z,17.81
2018-06-29T02:07:31.387Z,17.81
2018-06-29T02:08:31.353Z,17.75
2018-06-29T02:09:31.397Z,17.77
2018-06-29T02:10:31.405Z,17.79
2018-06-29T02:11:31.356Z,17.72
2018-06-29T02:12:31.366Z,17.70
2018-06-29T02:13:31.442Z,17.72
2018-06-29T02:14:31.362Z,17.75
2018-06-29T02:15:31.431Z,17.78
2018-06-29T02:16:31.408Z,17.66
2018-06-29T02:17:31.550Z,17.71
2018-06-29T02:18:31.390Z,17.68
2018-06-29T02:19:31.414Z,17.59
2018-06-29T02:20:31.398Z,17.55
2018-06-29T02:21:31.435Z,17.59
2018-06-29T02:22:31.396Z,17.66
2018-06-29T02:23:31.400Z,17.64
2018-06-29T02:24:31.427Z,17.56
2018-06-29T02:25:31.427Z,17.64
2018-06-29T02:26:31.429Z,17.58
2018-06-29T02:27:31.483Z,17.62
2018-06-29T02:28:31.440Z,17.62
2018-06-29T02:29:31.427Z,17.55
2018-06-29T02:30:31.441Z,17.49
2018-06-29T02:31:31.452Z,17.54
2018-06-29T02:32:31.483Z,17.64
2018-06-29T02:33:31.455Z,17.51
2018-06-29T02:34:31.430Z,17.54
2018-06-29T02:35:31.472Z,17.66
2018-06-29T02:36:31.471Z,17.43
2018-06-29T02:37:31.445Z,17.64
2018-06-29T02:38:31.473Z,17.44
2018-06-29T02:39:31.437Z,17.54
2018-06-29T02:40:31.453Z,17.51
2018-06-29T02:41:31.443Z,17.52
2018-06-29T02:42:31.445Z,17.51
2018-06-29T02:43:31.480Z,17.48
2018-06-29T02:44:31.474Z,17.36
2018-06-29T02:45:31.512Z,17.44
2018-06-29T02:46:31.502Z,17.40
2018-06-29T02:47:31.518Z,17.38
2018-06-29T02:48:31.477Z,17.44
2018-06-29T02:49:31.512Z,17.44
2018-06-29T02:50:31.568Z,17.38
2018-06-29T02:51:31.558Z,17.36
2018-06-29T02:52:31.540Z,17.38
2018-06-29T02:53:31.473Z,17.48
2018-06-29T02:54:31.475Z,17.41
2018-06-29T02:55:31.485Z,17.44
2018-06-29T02:56:31.517Z,17.48
2018-06-29T02:57:31.531Z,17.25
2018-06-29T02:58:31.528Z,17.25
2018-06-29T02:59:31.527Z,17.28
2018-06-29T03:00:31.511Z,17.19
2018-06-29T03:01:31.506Z,17.16
2018-06-29T03:02:31.550Z,17.30
2018-06-29T03:03:31.512Z,17.12
2018-06-29T03:04:31.510Z,17.15
2018-06-29T03:05:31.538Z,17.06
2018-06-29T03:06:31.550Z,17.04
2018-06-29T03:07:31.525Z,17.04
2018-06-29T03:08:31.528Z,17.12
2018-06-29T03:09:31.556Z,17.08
2018-06-29T03:10:31.518Z,17.04
2018-06-29T03:11:31.543Z,17.00
2018-06-29T03:12:31.553Z,17.01
2018-06-29T03:13:31.533Z,16.98
2018-06-29T03:14:31.533Z,16.94
2018-06-29T03:15:31.549Z,17.00
2018-06-29T03:16:31.535Z,16.97
2018-06-29T03:17:31.542Z,16.94
2018-06-29T03:18:31.560Z,16.91
2018-06-29T03:19:31.582Z,16.93
2018-06-29T03:20:31.541Z,17.03
2018-06-29T03:21:31.647Z,16.94
2018-06-29T03:22:31.566Z,16.91
2018-06-29T03:23:31.560Z,17.04
2018-06-29T03:24:31.584Z,17.04
2018-06-29T03:25:31.560Z,17.00
2018-06-29T03:26:31.566Z,16.93
2018-06-29T03:27:31.569Z,17.03
2018-06-29T03:28:31.584Z,16.94
2018-06-29T03:29:31.572Z,16.89
2018-06-29T03:30:31.587Z,16.93
2018-06-29T03:31:31.604Z,16.94
2018-06-29T03:32:31.589Z,16.91
2018-06-29T03:33:31.597Z,16.93
2018-06-29T03:34:31.618Z,17.01
2018-06-29T03:35:31.604Z,17.00
2018-06-29T03:36:31.597Z,17.01
2018-06-29T03:37:31.594Z,16.88
2018-06-29T03:38:31.590Z,17.03
2018-06-29T03:39:31.585Z,17.01
2018-06-29T03:40:31.666Z,17.00
2018-06-29T03:41:31.615Z,17.03
2018-06-29T03:42:31.625Z,16.96
2018-06-29T03:43:31.610Z,16.88
2018-06-29T03:44:31.627Z,16.82
2018-06-29T03:45:31.644Z,16.96
2018-06-29T03:46:31.621Z,16.91
2018-06-29T03:47:31.623Z,16.85
2018-06-29T03:48:31.623Z,16.88
2018-06-29T03:49:31.763Z,17.01
2018-06-29T03:50:31.677Z,16.94
2018-06-29T03:51:31.650Z,16.94
2018-06-29T03:52:31.644Z,17.01
2018-06-29T03:53:31.632Z,16.96
2018-06-29T03:54:31.643Z,17.00
2018-06-29T03:55:31.636Z,17.01
2018-06-29T03:56:31.633Z,16.96
2018-06-29T03:57:31.678Z,17.03
2018-06-29T03:58:31.656Z,17.04
2018-06-29T03:59:31.643Z,17.01
2018-06-29T04:00:31.668Z,16.96
2018-06-29T04:01:31.648Z,17.01
2018-06-29T04:02:31.702Z,17.03
2018-06-29T04:03:31.656Z,17.01
2018-06-29T04:04:31.683Z,17.04
2018-06-29T04:05:31.706Z,17.01
2018-06-29T04:06:31.662Z,16.98
2018-06-29T04:07:31.678Z,17.01
2018-06-29T04:08:31.690Z,17.06
2018-06-29T04:09:31.667Z,17.11
2018-06-29T04:10:31.677Z,17.04
2018-06-29T04:11:31.693Z,16.98
2018-06-29T04:12:31.706Z,16.97
2018-06-29T04:13:31.701Z,16.98
2018-06-29T04:14:31.707Z,16.97
2018-06-29T04:15:31.708Z,17.03
2018-06-29T04:16:31.717Z,17.01
2018-06-29T04:17:31.702Z,16.96
2018-06-29T04:18:31.712Z,16.97
2018-06-29T04:19:31.693Z,16.88
2018-06-29T04:20:31.722Z,17.06
2018-06-29T04:21:31.720Z,17.08
2018-06-29T04:22:31.694Z,17.03
2018-06-29T04:23:31.736Z,17.04
2018-06-29T04:24:31.708Z,17.12
2018-06-29T04:25:31.726Z,17.11
2018-06-29T04:26:31.760Z,17.04
2018-06-29T04:27:31.724Z,17.06
2018-06-29T04:28:31.732Z,17.11
2018-06-29T04:29:31.795Z,17.08
2018-06-29T04:30:31.725Z,17.07
2018-06-29T04:31:31.752Z,17.04
2018-06-29T04:32:31.746Z,17.06
2018-06-29T04:33:31.739Z,17.14
2018-06-29T04:34:31.763Z,17.04
2018-06-29T04:35:31.764Z,17.12
2018-06-29T04:36:31.782Z,17.15
2018-06-29T04:37:31.758Z,17.15
2018-06-29T04:38:31.758Z,17.12
2018-06-29T04:39:32.699Z,17.19
2018-06-29T04:40:31.742Z,17.18
2018-06-29T04:41:31.740Z,17.31
2018-06-29T04:42:31.763Z,17.28
2018-06-29T04:43:31.755Z,17.25
2018-06-29T04:44:31.760Z,17.25
2018-06-29T04:45:31.768Z,17.23
2018-06-29T04:46:31.788Z,17.19
2018-06-29T04:47:31.775Z,17.22
2018-06-29T04:48:31.768Z,17.30
2018-06-29T04:49:31.766Z,17.23
2018-06-29T04:50:31.838Z,17.28
2018-06-29T04:51:31.784Z,17.37
2018-06-29T04:52:31.798Z,17.40
2018-06-29T04:53:31.790Z,17.43
2018-06-29T04:54:31.802Z,17.46
2018-06-29T04:55:31.811Z,17.48
2018-06-29T04:56:31.817Z,17.46
2018-06-29T04:57:31.813Z,17.52
2018-06-29T04:58:31.819Z,17.68
2018-06-29T04:59:31.829Z,17.66
2018-06-29T05:00:31.819Z,17.62
2018-06-29T05:01:31.841Z,17.63
2018-06-29T05:02:31.870Z,17.64
2018-06-29T05:03:31.799Z,17.72
2018-06-29T05:04:31.957Z,17.72
2018-06-29T05:05:31.854Z,17.77
2018-06-29T05:06:31.818Z,17.86
2018-06-29T05:07:31.894Z,17.87
2018-06-29T05:08:31.811Z,17.97
2018-06-29T05:09:31.818Z,18.62
2018-06-29T05:10:31.896Z,19.50
2018-06-29T05:11:31.828Z,20.85
2018-06-29T05:12:31.831Z,22.03
2018-06-29T05:13:31.843Z,23.10
2018-06-29T05:14:31.868Z,23.79
2018-06-29T05:15:31.892Z,23.95
2018-06-29T05:16:31.864Z,24.47
2018-06-29T05:17:31.870Z,25.08
2018-06-29T05:18:31.875Z,25.27
2018-06-29T05:19:31.901Z,25.42
2018-06-29T05:20:31.878Z,25.14
2018-06-29T05:21:31.892Z,25.42
2018-06-29T05:22:31.864Z,25.69
2018-06-29T05:23:31.883Z,25.60
2018-06-29T05:24:31.887Z,25.99
2018-06-29T05:25:31.882Z,25.69
2018-06-29T05:26:31.871Z,26.06
2018-06-29T05:27:31.875Z,26.44
2018-06-29T05:28:32.760Z,26.37
2018-06-29T05:29:31.932Z,26.55
2018-06-29T05:30:31.891Z,26.58
2018-06-29T05:31:31.902Z,26.66
2018-06-29T05:32:31.904Z,26.48
2018-06-29T05:33:31.969Z,25.73
2018-06-29T05:34:31.983Z,25.47
2018-06-29T05:35:31.911Z,25.51
2018-06-29T05:36:31.922Z,25.75
2018-06-29T05:37:31.935Z,25.46
2018-06-29T05:38:31.935Z,25.08
2018-06-29T05:39:31.948Z,24.93
2018-06-29T05:40:31.999Z,25.09
2018-06-29T05:41:32.049Z,25.43
2018-06-29T05:42:31.968Z,25.83
2018-06-29T05:43:31.997Z,26.09
2018-06-29T05:44:32.116Z,26.10
2018-06-29T05:45:31.977Z,26.32
2018-06-29T05:46:31.990Z,26.80
2018-06-29T05:47:31.988Z,27.00
2018-06-29T05:48:32.030Z,27.41
2018-06-29T05:49:32.060Z,27.65
2018-06-29T05:50:32.084Z,28.03
2018-06-29T05:51:32.035Z,28.52
2018-06-29T05:52:32.050Z,28.31
2018-06-29T05:53:32.014Z,28.61
2018-06-29T05:54:32.043Z,28.48
2018-06-29T05:55:32.045Z,28.44
2018-06-29T05:56:32.053Z,27.24
2018-06-29T05:57:32.197Z,27.72
2018-06-29T05:58:32.065Z,28.14
2018-06-29T05:59:32.144Z,28.15
2018-06-29T06:00:32.096Z,28.52
2018-06-29T06:01:32.162Z,28.93
2018-06-29T06:02:32.175Z,28.74
2018-06-29T06:03:32.129Z,28.86
2018-06-29T06:04:32.212Z,27.70
2018-06-29T06:05:32.168Z,27.99
2018-06-29T06:06:32.216Z,28.17
2018-06-29T06:07:32.135Z,27.66
2018-06-29T06:08:32.154Z,27.69
2018-06-29T06:09:32.150Z,28.44
2018-06-29T06:10:32.168Z,28.78
2018-06-29T06:11:32.242Z,29.16
2018-06-29T06:12:32.297Z,29.70
2018-06-29T06:13:32.950Z,29.24
2018-06-29T06:14:32.314Z,28.85
2018-06-29T06:15:33.002Z,27.99
2018-06-29T06:16:32.275Z,28.73
2018-06-29T06:17:32.262Z,28.95
2018-06-29T06:18:32.272Z,29.58
2018-06-29T06:19:32.289Z,29.90
2018-06-29T06:20:32.319Z,29.85
2018-06-29T06:21:32.319Z,30.22
2018-06-29T06:22:32.424Z,30.13
2018-06-29T06:23:32.326Z,30.47
2018-06-29T06:24:32.457Z,30.29
2018-06-29T06:25:32.441Z,31.04
2018-06-29T06:26:32.371Z,30.77
2018-06-29T06:27:32.394Z,30.80
2018-06-29T06:28:32.438Z,30.97
2018-06-29T06:29:32.477Z,31.13
2018-06-29T06:30:32.435Z,31.06
2018-06-29T06:31:32.494Z,30.88
2018-06-29T06:32:32.397Z,31.21
2018-06-29T06:33:32.441Z,31.19
2018-06-29T06:34:32.458Z,30.84
2018-06-29T06:35:32.440Z,30.89
2018-06-29T06:36:32.448Z,30.23
2018-06-29T06:37:32.529Z,30.61
2018-06-29T06:38:32.830Z,30.42
2018-06-29T06:39:33.297Z,30.07
2018-06-29T06:40:32.532Z,30.15
2018-06-29T06:41:32.481Z,30.75
2018-06-29T06:42:32.497Z,30.58
2018-06-29T06:43:32.622Z,31.32
2018-06-29T06:44:32.593Z,31.48
2018-06-29T06:45:32.601Z,30.99
2018-06-29T06:46:32.582Z,31.17
2018-06-29T06:47:32.595Z,31.85
2018-06-29T06:48:33.553Z,31.47
2018-06-29T06:49:32.658Z,31.73
2018-06-29T06:50:35.400Z,31.69
2018-06-29T06:51:32.957Z,31.93
2018-06-29T06:52:32.899Z,31.51
2018-06-29T06:53:32.737Z,31.84
2018-06-29T06:54:32.833Z,31.85
2018-06-29T06:55:32.821Z,31.85
2018-06-29T06:56:34.402Z,30.99
2018-06-29T06:57:33.773Z,30.64
2018-06-29T06:58:32.791Z,31.17
2018-06-29T06:59:32.836Z,31.68
2018-06-29T07:00:32.832Z,31.44
2018-06-29T07:01:33.663Z,31.34
2018-06-29T07:02:33.769Z,31.10
2018-06-29T07:03:34.331Z,31.78
2018-06-29T07:04:33.176Z,32.37
2018-06-29T07:05:35.414Z,32.35
2018-06-29T07:06:32.971Z,32.72
2018-06-29T07:07:32.934Z,32.82
2018-06-29T07:08:33.695Z,32.47
2018-06-29T07:09:33.916Z,32.26
2018-06-29T07:10:33.020Z,31.76
2018-06-29T07:11:32.928Z,31.84
2018-06-29T07:12:33.000Z,32.55
2018-06-29T07:13:33.039Z,32.43
2018-06-29T07:14:33.237Z,32.21
2018-06-29T07:15:33.050Z,32.08
2018-06-29T07:16:33.035Z,31.51
2018-06-29T07:17:33.064Z,31.76
2018-06-29T07:18:33.088Z,31.23
2018-06-29T07:19:33.241Z,31.50
2018-06-29T07:20:33.139Z,31.95
2018-06-29T07:21:33.077Z,31.48
2018-06-29T07:22:33.786Z,31.68
2018-06-29T07:23:33.179Z,32.11
2018-06-29T07:24:33.641Z,32.75
2018-06-29T07:25:33.250Z,32.48
2018-06-29T07:26:33.211Z,32.65
2018-06-29T07:27:33.917Z,32.65
2018-06-29T07:28:33.204Z,31.91
2018-06-29T07:29:34.857Z,32.00
2018-06-29T07:30:33.302Z,31.99
2018-06-29T07:31:34.495Z,32.56
2018-06-29T07:32:35.084Z,31.80
2018-06-29T07:33:33.326Z,31.95
2018-06-29T07:34:33.316Z,30.94
2018-06-29T07:35:33.432Z,31.56
2018-06-29T07:36:33.396Z,32.38
2018-06-29T07:37:33.371Z,32.99
2018-06-29T07:38:33.496Z,32.10
2018-06-29T07:39:33.451Z,32.28
2018-06-29T07:40:33.482Z,32.62
2018-06-29T07:41:33.371Z,31.20
2018-06-29T07:42:33.494Z,32.25
2018-06-29T07:43:33.452Z,32.89
2018-06-29T07:44:33.994Z,33.54
2018-06-29T07:45:33.567Z,33.53
2018-06-29T07:46:34.151Z,33.41
2018-06-29T07:47:33.616Z,32.29
2018-06-29T07:48:33.650Z,32.88
2018-06-29T07:49:33.593Z,33.41
2018-06-29T07:50:33.713Z,32.97
2018-06-29T07:51:34.486Z,32.52
2018-06-29T07:52:33.670Z,32.74
2018-06-29T07:53:33.681Z,33.31
2018-06-29T07:54:33.643Z,33.41
2018-06-29T07:55:33.699Z,33.01
2018-06-29T07:56:34.431Z,31.80
2018-06-29T07:57:33.708Z,32.04
2018-06-29T07:58:33.843Z,32.55
2018-06-29T07:59:33.834Z,32.57
2018-06-29T08:00:33.774Z,32.92
2018-06-29T08:01:33.825Z,32.99
2018-06-29T08:02:33.889Z,32.72
2018-06-29T08:03:33.844Z,32.96
2018-06-29T08:04:33.878Z,32.66
2018-06-29T08:05:33.896Z,33.12
2018-06-29T08:06:33.914Z,33.26
2018-06-29T08:07:34.036Z,33.11
2018-06-29T08:08:33.984Z,33.04
2018-06-29T08:09:34.119Z,33.65
2018-06-29T08:10:36.625Z,33.78
2018-06-29T08:11:33.996Z,33.72
2018-06-29T08:12:34.065Z,34.10
2018-06-29T08:13:34.042Z,34.32
2018-06-29T08:14:34.181Z,34.59
2018-06-29T08:15:34.079Z,34.54
2018-06-29T08:16:34.045Z,34.78
2018-06-29T08:17:34.117Z,34.65
2018-06-29T08:18:34.336Z,33.91
2018-06-29T08:19:34.225Z,34.24
2018-06-29T08:20:35.274Z,34.87
2018-06-29T08:21:34.203Z,33.82
2018-06-29T08:22:34.501Z,33.29
2018-06-29T08:23:34.365Z,32.92
2018-06-29T08:24:34.336Z,33.82
2018-06-29T08:25:34.346Z,34.13
2018-06-29T08:26:34.288Z,34.30
2018-06-29T08:27:34.370Z,34.58
2018-06-29T08:28:34.363Z,34.73
2018-06-29T08:29:34.305Z,34.82
2018-06-29T08:30:34.293Z,35.44
2018-06-29T08:31:34.378Z,35.22
2018-06-29T08:32:34.394Z,34.39
2018-06-29T08:33:34.493Z,33.54
2018-06-29T08:34:34.552Z,33.34
2018-06-29T08:35:34.496Z,33.66
2018-06-29T08:36:35.338Z,33.90
2018-06-29T08:37:34.519Z,33.37
2018-06-29T08:38:34.537Z,32.97
2018-06-29T08:39:34.563Z,33.60
2018-06-29T08:40:34.544Z,33.91
2018-06-29T08:41:34.612Z,34.46
2018-06-29T08:42:34.544Z,34.82
2018-06-29T08:43:34.697Z,35.11
2018-06-29T08:44:34.632Z,35.19
2018-06-29T08:45:35.353Z,35.75
2018-06-29T08:46:34.700Z,35.44
2018-06-29T08:47:34.749Z,34.62
2018-06-29T08:48:34.708Z,34.54
2018-06-29T08:49:34.776Z,34.30
2018-06-29T08:50:34.831Z,34.17
2018-06-29T08:51:34.845Z,33.18
2018-06-29T08:52:34.944Z,31.99
2018-06-29T08:53:34.972Z,32.93
2018-06-29T08:54:34.901Z,33.72
2018-06-29T08:55:35.018Z,33.18
2018-06-29T08:56:34.943Z,33.42
2018-06-29T08:57:34.989Z,33.81
2018-06-29T08:58:34.968Z,34.56
2018-06-29T08:59:34.967Z,34.87
2018-06-29T09:00:36.037Z,34.66
2018-06-29T09:08:09.815Z,33.15
2018-06-29T09:08:45.095Z,32.88
2018-06-29T09:09:45.035Z,33.54
2018-06-29T09:10:45.034Z,34.16
2018-06-29T09:11:45.051Z,32.59
2018-06-29T09:12:45.822Z,32.30
2018-06-29T09:13:45.145Z,33.26
2018-06-29T09:14:45.127Z,33.68
2018-06-29T09:15:45.168Z,34.44
2018-06-29T09:16:45.168Z,34.77
2018-06-29T09:17:45.212Z,34.09
2018-06-29T09:18:45.234Z,34.46
2018-06-29T09:19:45.236Z,34.58
2018-06-29T09:20:45.275Z,34.10
2018-06-29T09:21:45.281Z,32.92
2018-06-29T09:22:45.304Z,33.39
2018-06-29T09:23:45.826Z,33.88
2018-06-29T09:24:45.369Z,33.82
2018-06-29T09:25:45.369Z,34.78
2018-06-29T09:26:45.404Z,35.41
2018-06-29T09:27:45.506Z,35.66
2018-06-29T09:28:45.461Z,36.17
2018-06-29T09:29:45.492Z,36.28
2018-06-29T09:30:45.503Z,36.62
2018-06-29T09:31:45.521Z,36.76
2018-06-29T09:32:46.333Z,37.17
2018-06-29T09:33:45.575Z,37.57
2018-06-29T09:34:45.595Z,37.62
2018-06-29T09:35:46.336Z,37.39
2018-06-29T09:36:45.639Z,37.86
2018-06-29T09:37:45.680Z,37.24
2018-06-29T09:38:45.699Z,38.06
2018-06-29T09:47:31.547Z,36.25
2018-06-29T09:48:31.561Z,35.81
2018-06-29T09:50:24.447Z,35.44
2018-06-29T09:51:24.819Z,35.14
2018-06-29T09:52:24.050Z,34.47
2018-06-29T09:53:24.069Z,34.43
2018-06-29T09:54:24.137Z,34.72
2018-06-29T09:55:24.170Z,34.61
2018-06-29T09:56:24.157Z,34.56
2018-06-29T09:57:24.177Z,34.82
2018-06-29T09:58:24.213Z,35.07
2018-06-29T09:59:24.229Z,34.56
2018-06-29T10:00:24.256Z,34.81
2018-06-29T10:01:24.365Z,35.09
2018-06-29T10:02:24.320Z,34.65
2018-06-29T10:03:24.330Z,34.97
2018-06-29T10:04:24.350Z,34.91
2018-06-29T10:05:24.398Z,35.41
2018-06-29T10:06:24.447Z,35.55
2018-06-29T10:07:24.447Z,35.47
2018-06-29T10:08:24.450Z,34.94
2018-06-29T10:15:50.447Z,35.68
2018-06-29T10:16:34.982Z,36.35
2018-06-29T10:18:29.198Z,36.35
2018-06-29T10:19:30.099Z,36.54
2018-06-29T10:21:23.778Z,35.94
2018-06-29T10:22:23.809Z,36.25
2018-06-29T10:24:18.963Z,36.44
2018-06-29T10:25:18.640Z,35.75
2018-06-29T10:26:18.627Z,35.48
2018-06-29T10:27:18.672Z,35.77
2018-06-29T10:28:18.819Z,35.90
2018-06-29T10:29:20.407Z,35.92
2018-06-29T10:30:18.739Z,34.92
2018-06-29T10:31:18.737Z,35.02
2018-06-29T10:32:21.311Z,35.45
2018-06-29T10:33:18.827Z,35.65
2018-06-29T10:34:18.785Z,35.55
2018-06-29T10:35:18.842Z,35.70
2018-06-29T10:36:18.837Z,35.16
2018-06-29T10:37:19.666Z,34.99
2018-06-29T10:38:18.883Z,35.02
2018-06-29T10:39:18.906Z,34.92
2018-06-29T10:40:18.949Z,34.69
2018-06-29T10:41:18.969Z,34.65
2018-06-29T10:42:18.980Z,34.53
2018-06-29T10:43:19.045Z,34.09
2018-06-29T10:44:18.998Z,33.79
2018-06-29T10:45:19.891Z,33.76
2018-06-29T10:46:19.026Z,33.47
2018-06-29T10:47:22.668Z,33.35
2018-06-29T10:48:19.092Z,33.23
2018-06-29T10:49:19.151Z,32.79
2018-06-29T10:50:19.669Z,32.55
2018-06-29T10:51:19.120Z,32.38
2018-06-29T10:52:19.194Z,32.15
2018-06-29T10:53:19.153Z,31.86
2018-06-29T10:54:19.307Z,31.35
2018-06-29T10:55:19.209Z,31.46
2018-06-29T10:56:19.251Z,31.63
2018-06-29T10:57:19.345Z,31.58
2018-06-29T10:58:19.267Z,31.34
2018-06-29T10:59:20.497Z,31.38
2018-06-29T11:00:19.390Z,31.51
2018-06-29T11:01:19.460Z,31.32
2018-06-29T11:02:19.452Z,30.99
2018-06-29T11:03:20.274Z,31.17
2018-06-29T11:04:19.342Z,31.31
2018-06-29T11:05:19.445Z,31.29
2018-06-29T11:06:19.391Z,31.26
2018-06-29T11:07:19.407Z,31.23
2018-06-29T11:08:19.432Z,31.14
2018-06-29T11:09:19.454Z,31.28
2018-06-29T11:10:19.454Z,31.19
2018-06-29T11:11:19.447Z,31.17
2018-06-29T11:12:19.437Z,31.21
2018-06-29T11:13:19.598Z,31.44
2018-06-29T11:14:19.551Z,30.98
2018-06-29T11:15:19.827Z,31.10
2018-06-29T11:16:19.487Z,31.07
2018-06-29T11:17:19.498Z,31.23
2018-06-29T11:18:19.613Z,31.10
2018-06-29T11:19:19.554Z,30.89
2018-06-29T11:20:19.592Z,30.88
2018-06-29T11:21:19.559Z,30.83
2018-06-29T11:22:19.571Z,30.43
2018-06-29T11:23:19.616Z,30.20
2018-06-29T11:24:19.675Z,30.23
2018-06-29T11:25:19.609Z,30.65
2018-06-29T11:26:19.636Z,30.92
2018-06-29T11:27:19.620Z,31.02
2018-06-29T11:28:19.678Z,31.23
2018-06-29T11:29:19.643Z,31.31
2018-06-29T11:30:19.752Z,31.26
2018-06-29T11:31:19.680Z,31.48
2018-06-29T11:32:20.078Z,31.63
2018-06-29T11:33:19.703Z,31.44
2018-06-29T11:34:19.702Z,31.34
2018-06-29T11:35:19.843Z,30.80
2018-06-29T11:36:19.723Z,30.79
2018-06-29T11:37:19.782Z,30.58
2018-06-29T11:38:19.747Z,30.54
2018-06-29T11:39:19.798Z,30.72
2018-06-29T11:40:19.798Z,30.73
2018-06-29T11:41:19.836Z,30.64
2018-06-29T11:42:19.843Z,30.80
2018-06-29T11:43:19.866Z,30.47
2018-06-29T11:44:21.791Z,30.64
2018-06-29T11:45:19.878Z,30.83
2018-06-29T11:46:19.850Z,30.73
2018-06-29T11:47:19.899Z,30.69
2018-06-29T11:48:19.901Z,30.46
2018-06-29T11:49:19.960Z,30.45
2018-06-29T11:50:21.816Z,30.05
2018-06-29T11:51:20.010Z,29.55
2018-06-29T11:52:20.004Z,29.60
2018-06-29T11:53:19.906Z,30.00
2018-06-29T11:54:19.952Z,30.34
2018-06-29T11:55:20.040Z,30.42
2018-06-29T11:56:20.044Z,30.67
2018-06-29T11:57:20.007Z,31.02
2018-06-29T11:58:20.017Z,31.23
2018-06-29T11:59:19.999Z,31.21
2018-06-29T12:00:20.089Z,31.02
2018-06-29T12:01:20.028Z,30.58
2018-06-29T12:02:20.023Z,30.69
2018-06-29T12:03:20.008Z,30.65
2018-06-29T12:04:20.044Z,30.73
2018-06-29T12:05:20.078Z,30.89
2018-06-29T12:06:20.136Z,31.12
2018-06-29T12:07:20.805Z,31.36
2018-06-29T12:08:20.082Z,31.04
2018-06-29T12:09:20.136Z,30.91
2018-06-29T12:10:20.099Z,31.12
2018-06-29T12:11:20.121Z,30.88
2018-06-29T12:12:20.173Z,30.84
2018-06-29T12:13:20.138Z,30.84
2018-06-29T12:14:20.138Z,30.91
2018-06-29T12:15:20.136Z,31.06
2018-06-29T12:16:20.157Z,31.25
2018-06-29T12:17:20.189Z,31.25
2018-06-29T12:18:20.165Z,31.31
2018-06-29T12:19:20.239Z,31.13
2018-06-29T12:20:20.204Z,30.99
2018-06-29T12:21:20.199Z,30.98
2018-06-29T12:22:21.847Z,31.04
2018-06-29T12:23:21.385Z,30.89
2018-06-29T12:24:20.240Z,30.88
2018-06-29T12:25:20.252Z,30.97
2018-06-29T12:26:20.285Z,30.98
2018-06-29T12:27:20.268Z,31.20
2018-06-29T12:28:20.250Z,30.98
2018-06-29T12:29:20.319Z,31.10
2018-06-29T12:30:20.347Z,31.01
2018-06-29T12:31:20.352Z,31.09
2018-06-29T12:32:20.371Z,30.94
2018-06-29T12:33:20.457Z,31.06
2018-06-29T12:34:20.363Z,31.02
2018-06-29T12:35:20.345Z,30.99
2018-06-29T12:36:20.432Z,30.92
2018-06-29T12:37:20.375Z,30.65
2018-06-29T12:38:20.371Z,30.23
2018-06-29T12:39:20.348Z,30.07
2018-06-29T12:40:21.235Z,30.22
2018-06-29T12:41:21.235Z,30.43
2018-06-29T12:42:20.529Z,30.67
2018-06-29T12:43:20.439Z,30.67
2018-06-29T12:44:20.626Z,30.84
2018-06-29T12:45:20.462Z,30.64
2018-06-29T12:46:20.501Z,30.83
2018-06-29T12:47:20.460Z,30.73
2018-06-29T12:48:20.482Z,30.70
2018-06-29T12:49:20.491Z,30.67
2018-06-29T12:50:20.572Z,30.64
2018-06-29T12:51:20.512Z,30.77
2018-06-29T12:52:20.512Z,30.83
2018-06-29T12:53:20.562Z,30.80
2018-06-29T12:54:20.518Z,30.67
2018-06-29T12:55:20.641Z,30.58
2018-06-29T12:56:20.575Z,30.45
2018-06-29T12:57:20.781Z,30.34
2018-06-29T12:58:20.557Z,30.45
2018-06-29T12:59:20.557Z,30.49
2018-06-29T13:00:20.609Z,30.51
2018-06-29T13:01:20.581Z,30.58
2018-06-29T13:02:20.585Z,30.47
2018-06-29T13:03:20.585Z,30.49
2018-06-29T13:04:20.609Z,30.07
2018-06-29T13:05:20.640Z,29.63
2018-06-29T13:06:20.635Z,29.73
2018-06-29T13:07:20.626Z,29.58
2018-06-29T13:08:20.687Z,29.58
2018-06-29T13:09:20.825Z,29.71
2018-06-29T13:10:20.713Z,29.87
2018-06-29T13:11:20.662Z,30.00
2018-06-29T13:12:20.702Z,30.13
2018-06-29T13:13:20.695Z,30.24
2018-06-29T13:14:20.688Z,30.05
2018-06-29T13:15:20.691Z,30.08
2018-06-29T13:16:20.763Z,29.92
2018-06-29T13:17:20.770Z,29.61
2018-06-29T13:18:20.780Z,29.67